College Springs, Iowa
Current Conditions -  °F | °C
As of 12:15 PM on Friday 28 Nov 2014 (Local Time) from KICL Reporting Station
Clear Clear  
Wind Chill: 39°   Ceiling: Unl
Heat Index: 45°   Visibility: 10mi
Dew Point: 30°   Wind: 12mph
Humidity: 57%   Direction: 190°S
Pressure: 29.83"   Gusts: NA
Location:  40.62°N, 95.12°W
Report Text: KICL 281815Z AUTO 19010KT 10SM CLR 07/M01 A2983 RMK AO2
Loading
Personal Weather Stations






























Interactive Weather Map New forecast layout! Learn more

10-Day Weather Forecast

Advertisements
Track Severe Weather on mobile